createdAt,value
2017-08-23T00:00:19.527Z,3.63
2017-08-23T00:02:47.058Z,5.13
2017-08-23T00:05:14.587Z,4.40
2017-08-23T00:07:42.152Z,4.03
2017-08-23T00:10:09.720Z,4.70
2017-08-23T00:12:37.641Z,4.00
2017-08-23T00:15:05.164Z,4.47
2017-08-23T00:17:32.692Z,4.60
2017-08-23T00:20:00.266Z,3.90
2017-08-23T00:22:27.778Z,5.17
2017-08-23T00:24:55.630Z,4.63
2017-08-23T00:27:23.162Z,5.03
2017-08-23T00:29:50.706Z,5.30
2017-08-23T00:32:18.315Z,5.40
2017-08-23T00:34:45.846Z,5.60
2017-08-23T00:37:13.774Z,5.50
2017-08-23T00:39:41.297Z,5.43
2017-08-23T00:42:08.818Z,5.90
2017-08-23T00:44:36.411Z,5.50
2017-08-23T00:47:03.953Z,4.67
2017-08-23T00:49:31.971Z,5.17
2017-08-23T00:51:59.492Z,5.80
2017-08-23T00:54:27.096Z,6.10
2017-08-23T00:56:54.836Z,5.47
2017-08-23T00:59:22.361Z,5.70
2017-08-23T01:01:50.191Z,5.97
2017-08-23T01:04:17.710Z,5.53
2017-08-23T01:06:45.241Z,5.43
2017-08-23T01:12:06.360Z,5.13
2017-08-23T01:14:34.175Z,6.40
2017-08-23T01:17:01.710Z,5.60
2017-08-23T01:19:29.249Z,6.50
2017-08-23T01:21:56.806Z,5.60
2017-08-23T01:24:24.341Z,5.90
2017-08-23T01:26:52.287Z,5.23
2017-08-23T01:29:19.849Z,5.70
2017-08-23T01:31:47.360Z,5.83
2017-08-23T01:34:14.943Z,5.77
2017-08-23T01:36:42.480Z,5.60
2017-08-23T01:39:10.306Z,5.20
2017-08-23T01:41:37.837Z,5.17
2017-08-23T01:44:05.384Z,4.80
2017-08-23T01:46:32.968Z,5.57
2017-08-23T01:49:00.487Z,5.30
2017-08-23T01:51:28.422Z,5.50
2017-08-23T01:53:55.949Z,5.30
2017-08-23T01:56:23.478Z,4.60
2017-08-23T01:58:51.041Z,5.90
2017-08-23T02:01:18.583Z,5.17
2017-08-23T02:03:46.410Z,5.93
2017-08-23T02:06:13.951Z,5.97
2017-08-23T02:11:26.655Z,5.47
2017-08-23T02:13:54.214Z,5.93
2017-08-23T02:16:22.144Z,5.53
2017-08-23T02:18:49.685Z,5.70
2017-08-23T02:21:17.224Z,5.13
2017-08-23T02:23:44.783Z,5.90
2017-08-23T02:26:19.966Z,5.40
2017-08-23T02:28:47.819Z,6.10
2017-08-23T02:31:15.346Z,5.30
2017-08-23T02:33:42.901Z,5.10
2017-08-23T02:36:10.465Z,5.67
2017-08-23T02:38:37.975Z,4.70
2017-08-23T02:41:05.829Z,4.77
2017-08-23T02:43:33.343Z,6.13
2017-08-23T02:46:00.874Z,5.70
2017-08-23T02:48:28.463Z,5.17
2017-08-23T02:50:55.996Z,5.67
2017-08-23T02:53:23.856Z,4.73
2017-08-23T02:55:51.382Z,5.30
2017-08-23T02:58:18.950Z,4.70
2017-08-23T03:00:46.501Z,5.40
2017-08-23T03:03:14.045Z,5.40
2017-08-23T03:05:41.963Z,5.70
2017-08-23T03:08:09.493Z,5.30
2017-08-23T03:10:37.034Z,6.07
2017-08-23T03:13:05.046Z,5.80
2017-08-23T03:15:32.567Z,5.33
2017-08-23T03:18:00.576Z,5.60
2017-08-23T03:20:28.115Z,5.53
2017-08-23T03:22:55.626Z,6.07
2017-08-23T03:25:23.195Z,4.70
2017-08-23T03:27:50.707Z,5.20
2017-08-23T03:30:18.603Z,5.47
2017-08-23T03:32:46.117Z,5.70
2017-08-23T03:35:13.637Z,5.20
2017-08-23T03:37:41.186Z,5.67
2017-08-23T03:40:08.719Z,5.60
2017-08-23T03:42:36.586Z,5.70
2017-08-23T03:45:04.135Z,4.93
2017-08-23T03:47:31.648Z,4.47
2017-08-23T03:49:59.207Z,6.10
2017-08-23T03:52:32.602Z,5.23
2017-08-23T03:55:00.442Z,6.80
2017-08-23T03:57:27.957Z,4.97
2017-08-23T03:59:55.519Z,4.80
2017-08-23T04:02:23.102Z,6.10
2017-08-23T04:04:50.615Z,5.83
2017-08-23T04:07:18.432Z,5.27
2017-08-23T04:09:45.966Z,5.13
2017-08-23T04:12:13.495Z,5.63
2017-08-23T04:14:41.041Z,5.20
2017-08-23T04:17:08.584Z,5.50
2017-08-23T04:19:36.439Z,5.33
2017-08-23T04:22:04.102Z,4.70
2017-08-23T04:24:31.676Z,5.67
2017-08-23T04:26:59.239Z,6.37
2017-08-23T04:29:26.765Z,6.13
2017-08-23T04:31:54.672Z,5.90
2017-08-23T04:34:22.194Z,6.60
2017-08-23T04:36:49.734Z,5.73
2017-08-23T04:39:17.317Z,7.70
2017-08-23T04:41:44.868Z,5.90
2017-08-23T04:44:13.613Z,7.93
2017-08-23T04:46:41.145Z,17.93
2017-08-23T04:49:08.699Z,20.60
2017-08-23T04:51:36.252Z,8.43
2017-08-23T04:54:03.811Z,6.87
2017-08-23T04:56:31.662Z,6.60
2017-08-23T04:58:59.222Z,5.93
2017-08-23T05:01:37.280Z,6.10
2017-08-23T05:04:04.838Z,6.00
2017-08-23T05:06:32.373Z,5.67
2017-08-23T05:08:59.954Z,5.50
2017-08-23T05:11:27.482Z,5.20
2017-08-23T05:13:55.385Z,5.80
2017-08-23T05:16:22.922Z,5.00
2017-08-23T05:18:50.444Z,5.03
2017-08-23T05:21:18.014Z,5.63
2017-08-23T05:23:45.585Z,5.33
2017-08-23T05:26:13.434Z,5.00
2017-08-23T05:28:40.956Z,5.03
2017-08-23T05:31:08.485Z,5.70
2017-08-23T05:33:36.055Z,5.30
2017-08-23T05:36:03.602Z,5.80
2017-08-23T05:38:31.515Z,4.57
2017-08-23T05:40:59.081Z,4.33
2017-08-23T05:43:26.631Z,4.43
2017-08-23T05:45:54.189Z,5.80
2017-08-23T05:48:21.713Z,5.10
2017-08-23T05:50:49.589Z,5.30
2017-08-23T05:53:17.130Z,5.43
2017-08-23T05:55:46.613Z,4.83
2017-08-23T05:58:15.190Z,4.80
2017-08-23T06:00:42.768Z,5.47
2017-08-23T06:03:25.724Z,5.53
2017-08-23T06:05:53.281Z,4.80
2017-08-23T06:08:20.796Z,4.67
2017-08-23T06:10:49.141Z,4.60
2017-08-23T06:13:16.683Z,5.50
2017-08-23T06:15:44.634Z,5.83
2017-08-23T06:18:12.238Z,5.50
2017-08-23T06:20:39.774Z,6.27
2017-08-23T06:23:07.339Z,6.47
2017-08-23T06:25:34.878Z,5.37
2017-08-23T06:28:02.706Z,5.90
2017-08-23T06:30:30.241Z,6.03
2017-08-23T06:32:57.821Z,5.77
2017-08-23T06:35:25.412Z,5.03
2017-08-23T06:37:52.951Z,4.70
2017-08-23T06:40:20.789Z,5.47
2017-08-23T06:42:48.334Z,5.10
2017-08-23T06:45:15.840Z,4.63
2017-08-23T06:47:43.432Z,4.70
2017-08-23T06:50:10.957Z,4.83
2017-08-23T06:52:38.901Z,4.40
2017-08-23T06:55:06.471Z,4.53
2017-08-23T06:57:34.024Z,5.67
2017-08-23T07:00:01.584Z,4.23
2017-08-23T07:02:29.133Z,5.07
2017-08-23T07:04:57.097Z,4.40
2017-08-23T07:07:24.622Z,5.60
2017-08-23T07:09:52.131Z,5.40
2017-08-23T07:12:19.749Z,4.80
2017-08-23T07:14:47.260Z,4.50
2017-08-23T07:17:15.126Z,4.80
2017-08-23T07:19:42.672Z,4.70
2017-08-23T07:22:10.242Z,6.30
2017-08-23T07:24:37.783Z,5.43
2017-08-23T07:27:05.334Z,4.13
2017-08-23T07:29:33.211Z,4.37
2017-08-23T07:32:00.750Z,4.80
2017-08-23T07:34:28.296Z,4.77
2017-08-23T07:36:55.848Z,5.00
2017-08-23T07:39:23.383Z,4.70
2017-08-23T07:41:51.208Z,4.60
2017-08-23T07:44:18.754Z,4.20
2017-08-23T07:46:46.289Z,5.10
2017-08-23T07:49:13.870Z,4.43
2017-08-23T07:51:41.404Z,5.03
2017-08-23T07:54:09.339Z,5.33
2017-08-23T07:56:36.904Z,5.13
2017-08-23T07:59:04.474Z,4.47
2017-08-23T08:01:32.039Z,4.40
2017-08-23T08:03:59.580Z,4.40
2017-08-23T08:06:27.454Z,3.80
2017-08-23T08:08:54.981Z,4.23
2017-08-23T08:11:22.523Z,3.67
2017-08-23T08:13:50.087Z,3.73
2017-08-23T08:16:17.620Z,3.13
2017-08-23T08:18:45.578Z,3.90
2017-08-23T08:21:13.116Z,3.80
2017-08-23T08:23:40.661Z,3.67
2017-08-23T08:26:08.217Z,3.07
2017-08-23T08:28:35.788Z,3.10
2017-08-23T08:31:03.615Z,3.70
2017-08-23T08:33:31.159Z,3.43
2017-08-23T08:35:58.693Z,2.97
2017-08-23T08:38:26.234Z,3.70
2017-08-23T08:40:53.765Z,2.97
2017-08-23T08:43:21.689Z,3.27
2017-08-23T08:45:49.211Z,3.07
2017-08-23T08:48:16.767Z,3.07
2017-08-23T08:50:44.325Z,3.30
2017-08-23T08:53:11.879Z,4.30
2017-08-23T08:55:39.810Z,3.40
2017-08-23T08:58:26.821Z,2.90
2017-08-23T09:00:54.761Z,3.30
2017-08-23T09:03:22.297Z,3.73
2017-08-23T09:05:49.845Z,3.20
2017-08-23T09:08:17.435Z,3.30
2017-08-23T09:10:44.971Z,2.57
2017-08-23T09:13:12.780Z,2.50
2017-08-23T09:15:40.321Z,2.73
2017-08-23T09:18:07.849Z,2.80
2017-08-23T09:20:35.430Z,2.10
2017-08-23T09:23:02.968Z,2.50
2017-08-23T09:25:30.839Z,2.70
2017-08-23T09:27:58.373Z,2.80
2017-08-23T09:30:25.947Z,2.47
2017-08-23T09:32:53.503Z,3.17
2017-08-23T09:35:21.033Z,2.80
2017-08-23T09:37:48.970Z,3.00
2017-08-23T09:40:16.506Z,3.60
2017-08-23T09:42:44.103Z,3.53
2017-08-23T09:45:11.725Z,3.40
2017-08-23T09:47:39.258Z,2.90
2017-08-23T09:50:07.118Z,3.20
2017-08-23T09:52:34.651Z,3.30
2017-08-23T09:55:02.223Z,2.70
2017-08-23T09:57:29.785Z,3.20
2017-08-23T09:59:57.298Z,3.10
2017-08-23T10:02:25.174Z,2.80
2017-08-23T10:04:52.674Z,2.57
2017-08-23T10:07:20.225Z,3.17
2017-08-23T10:09:47.787Z,3.23
2017-08-23T10:12:15.322Z,3.13
2017-08-23T10:14:43.136Z,3.20
2017-08-23T10:17:10.679Z,3.10
2017-08-23T10:19:38.209Z,2.73
2017-08-23T10:22:05.796Z,2.67
2017-08-23T10:24:33.332Z,2.97
2017-08-23T10:27:01.234Z,2.80
2017-08-23T10:29:28.795Z,3.43
2017-08-23T10:31:56.313Z,2.90
2017-08-23T10:34:23.915Z,2.60
2017-08-23T10:36:51.459Z,3.20
2017-08-23T10:39:19.318Z,3.50
2017-08-23T10:41:46.858Z,3.07
2017-08-23T10:44:14.433Z,2.40
2017-08-23T10:46:41.991Z,2.90
2017-08-23T10:49:09.525Z,2.90
2017-08-23T10:51:37.387Z,3.37
2017-08-23T10:54:04.925Z,3.57
2017-08-23T10:56:32.463Z,3.40
2017-08-23T10:59:00.039Z,4.00
2017-08-23T11:01:27.583Z,3.27
2017-08-23T11:03:55.556Z,3.47
2017-08-23T11:06:23.067Z,3.50
2017-08-23T11:08:50.645Z,3.60
2017-08-23T11:11:18.239Z,3.20
2017-08-23T11:13:45.752Z,2.80
2017-08-23T11:16:13.610Z,3.03
2017-08-23T11:18:41.192Z,3.20
2017-08-23T11:21:08.752Z,3.10
2017-08-23T11:23:36.321Z,8.93
2017-08-23T11:26:04.294Z,3.97
2017-08-23T11:28:32.107Z,3.03
2017-08-23T11:30:59.659Z,3.00
2017-08-23T11:33:27.180Z,3.90
2017-08-23T11:35:54.763Z,3.77
2017-08-23T11:38:22.650Z,3.83
2017-08-23T11:40:50.482Z,3.07
2017-08-23T11:43:18.023Z,5.23
2017-08-23T11:45:46.334Z,3.17
2017-08-23T11:48:13.901Z,3.50
2017-08-23T11:50:41.442Z,2.93
2017-08-23T11:53:09.297Z,2.90
2017-08-23T11:55:36.840Z,2.93
2017-08-23T11:58:04.374Z,3.27
2017-08-23T12:00:31.952Z,3.10
2017-08-23T12:02:59.487Z,2.57
2017-08-23T12:05:27.445Z,3.10
2017-08-23T12:07:54.990Z,2.73
2017-08-23T12:10:22.824Z,2.83
2017-08-23T12:12:50.382Z,2.57
2017-08-23T12:15:17.936Z,3.40
2017-08-23T12:17:45.880Z,3.07
2017-08-23T12:20:13.417Z,3.00
2017-08-23T12:22:40.975Z,2.63
2017-08-23T12:25:08.568Z,2.73
2017-08-23T12:27:36.137Z,3.00
2017-08-23T12:30:04.008Z,2.80
2017-08-23T12:32:31.535Z,3.20
2017-08-23T12:34:59.131Z,3.10
2017-08-23T12:37:26.693Z,3.10
2017-08-23T12:39:54.251Z,2.63
2017-08-23T12:42:22.128Z,2.43
2017-08-23T12:44:49.664Z,2.10
2017-08-23T12:47:17.598Z,2.60
2017-08-23T12:49:45.152Z,2.70
2017-08-23T12:52:12.695Z,2.50
2017-08-23T12:54:40.521Z,2.60
2017-08-23T12:57:08.067Z,2.77
2017-08-23T12:59:35.614Z,2.33
2017-08-23T13:02:03.206Z,2.70
2017-08-23T13:04:30.775Z,2.33
2017-08-23T13:06:58.707Z,2.83
2017-08-23T13:09:26.234Z,2.70
2017-08-23T13:11:53.774Z,2.83
2017-08-23T13:14:21.337Z,2.50
2017-08-23T13:19:38.329Z,2.40
2017-08-23T13:22:05.869Z,2.17
2017-08-23T13:24:33.419Z,2.60
2017-08-23T13:27:01.006Z,2.37
2017-08-23T13:29:28.536Z,2.73
2017-08-23T13:31:56.399Z,2.50
2017-08-23T13:34:23.956Z,3.10
2017-08-23T13:36:51.503Z,2.53
2017-08-23T13:39:19.074Z,2.40
2017-08-23T13:41:46.603Z,2.50
2017-08-23T13:44:14.464Z,2.10
2017-08-23T13:46:42.015Z,3.30
2017-08-23T13:49:09.555Z,3.40
2017-08-23T13:51:37.105Z,2.60
2017-08-23T13:54:04.678Z,2.47
2017-08-23T13:56:33.076Z,2.37
2017-08-23T13:59:00.620Z,2.20
2017-08-23T14:01:29.074Z,2.50
2017-08-23T14:03:56.710Z,2.30
2017-08-23T14:06:24.254Z,2.60
2017-08-23T14:08:52.104Z,2.37
2017-08-23T14:11:19.653Z,2.27
2017-08-23T14:13:47.244Z,2.30
2017-08-23T14:16:14.810Z,2.10
2017-08-23T14:18:42.369Z,2.40
2017-08-23T14:21:10.230Z,2.30
2017-08-23T14:23:38.254Z,2.00
2017-08-23T14:26:05.867Z,2.33
2017-08-23T14:28:33.424Z,2.37
2017-08-23T14:31:00.974Z,1.87
2017-08-23T14:33:28.823Z,2.30
2017-08-23T14:35:56.352Z,2.07
2017-08-23T14:38:23.948Z,2.13
2017-08-23T14:40:51.534Z,2.07
2017-08-23T14:43:19.047Z,2.53
2017-08-23T14:45:46.860Z,2.37
2017-08-23T14:48:14.418Z,2.00
2017-08-23T14:50:41.958Z,2.30
2017-08-23T14:53:09.534Z,2.37
2017-08-23T14:55:37.098Z,2.00
2017-08-23T14:58:04.969Z,2.50
2017-08-23T15:00:32.534Z,2.67
2017-08-23T15:03:00.066Z,2.23
2017-08-23T15:05:27.671Z,1.90
2017-08-23T15:07:55.245Z,2.00
2017-08-23T15:10:23.077Z,1.80
2017-08-23T15:12:50.644Z,2.00
2017-08-23T15:15:18.187Z,2.13
2017-08-23T15:17:45.743Z,1.90
2017-08-23T15:20:13.283Z,2.03
2017-08-23T15:22:41.211Z,2.40
2017-08-23T15:25:08.764Z,2.40
2017-08-23T15:27:36.324Z,2.10
2017-08-23T15:30:03.928Z,2.30
2017-08-23T15:32:31.456Z,2.90
2017-08-23T15:35:03.926Z,2.53
2017-08-23T15:37:31.486Z,2.30
2017-08-23T15:39:59.073Z,2.30
2017-08-23T15:42:26.644Z,2.50
2017-08-23T15:44:54.182Z,2.20
2017-08-23T15:47:22.257Z,2.10
2017-08-23T15:49:49.849Z,2.30
2017-08-23T15:52:17.382Z,2.53
2017-08-23T15:54:44.946Z,2.27
2017-08-23T15:57:12.483Z,2.50
2017-08-23T15:59:40.309Z,1.93
2017-08-23T16:02:07.834Z,2.30
2017-08-23T16:04:35.364Z,2.00
2017-08-23T16:07:03.766Z,2.63
2017-08-23T16:09:31.318Z,2.00
2017-08-23T16:11:59.149Z,2.00
2017-08-23T16:14:26.664Z,2.70
2017-08-23T16:16:54.195Z,2.70
2017-08-23T16:19:21.803Z,2.20
2017-08-23T16:21:49.327Z,2.30
2017-08-23T16:24:17.133Z,2.30
2017-08-23T16:26:44.702Z,2.30
2017-08-23T16:29:12.266Z,2.20
2017-08-23T16:31:39.852Z,3.30
2017-08-23T16:34:07.400Z,3.60
2017-08-23T16:36:35.238Z,2.33
2017-08-23T16:39:02.770Z,1.90
2017-08-23T16:41:30.298Z,2.23
2017-08-23T16:43:57.888Z,1.93
2017-08-23T16:46:26.184Z,1.87
2017-08-23T16:48:54.021Z,2.73
2017-08-23T16:51:21.564Z,2.93
2017-08-23T16:53:49.096Z,2.50
2017-08-23T16:56:16.659Z,2.57
2017-08-23T16:58:44.195Z,2.43
2017-08-23T17:01:12.206Z,2.10
2017-08-23T17:03:39.744Z,2.20
2017-08-23T17:06:07.268Z,2.20
2017-08-23T17:08:34.842Z,2.50
2017-08-23T17:11:02.367Z,2.20
2017-08-23T17:13:30.340Z,2.50
2017-08-23T17:15:57.882Z,2.30
2017-08-23T17:18:25.408Z,2.40
2017-08-23T17:20:53.001Z,2.80
2017-08-23T17:23:21.329Z,2.47
2017-08-23T17:25:49.224Z,2.60
2017-08-23T17:28:16.765Z,2.77
2017-08-23T17:30:44.310Z,2.70
2017-08-23T17:33:11.913Z,2.30
2017-08-23T17:35:40.038Z,2.60
2017-08-23T17:38:07.619Z,2.50
2017-08-23T17:40:35.168Z,2.77
2017-08-23T17:43:03.026Z,2.97
2017-08-23T17:45:47.005Z,2.67
2017-08-23T17:48:14.886Z,3.10
2017-08-23T17:50:42.435Z,3.10
2017-08-23T17:53:10.000Z,2.93
2017-08-23T17:55:37.541Z,3.30
2017-08-23T17:58:05.078Z,3.00
2017-08-23T18:00:33.700Z,3.77
2017-08-23T18:03:01.230Z,3.13
2017-08-23T18:05:29.515Z,3.23
2017-08-23T18:07:57.091Z,3.73
2017-08-23T18:10:24.651Z,3.90
2017-08-23T18:12:52.583Z,3.57
2017-08-23T18:15:20.198Z,3.97
2017-08-23T18:17:47.728Z,3.50
2017-08-23T18:20:15.316Z,2.90
2017-08-23T18:22:42.846Z,3.43
2017-08-23T18:25:11.783Z,3.77
2017-08-23T18:27:39.326Z,3.60
2017-08-23T18:30:06.904Z,3.50
2017-08-23T18:32:34.490Z,3.90
2017-08-23T18:35:02.033Z,3.77
2017-08-23T18:37:30.657Z,4.00
2017-08-23T18:39:58.201Z,3.63
2017-08-23T18:42:25.735Z,4.30
2017-08-23T18:44:53.326Z,4.80
2017-08-23T18:47:20.873Z,5.00
2017-08-23T18:49:49.674Z,4.50
2017-08-23T18:52:17.220Z,4.80
2017-08-23T18:54:44.776Z,4.80
2017-08-23T18:57:13.348Z,5.57
2017-08-23T18:59:43.983Z,8.40
2017-08-23T19:02:24.356Z,10.30
2017-08-23T19:04:51.904Z,7.30
2017-08-23T19:07:31.139Z,5.40
2017-08-23T19:09:58.670Z,5.53
2017-08-23T19:12:33.727Z,4.97
2017-08-23T19:15:02.216Z,5.37
2017-08-23T19:17:29.783Z,6.17
2017-08-23T19:19:57.353Z,5.50
2017-08-23T19:22:24.975Z,4.80
2017-08-23T19:24:52.842Z,5.67
2017-08-23T19:27:23.799Z,4.70
2017-08-23T19:29:51.346Z,4.80
2017-08-23T19:32:18.914Z,5.50
2017-08-23T19:34:46.521Z,5.53
2017-08-23T19:37:14.406Z,5.63
2017-08-23T19:39:42.015Z,6.33
2017-08-23T19:42:15.584Z,5.13
2017-08-23T19:44:43.130Z,5.90
2017-08-23T19:47:10.713Z,6.00
2017-08-23T19:49:38.301Z,5.40
2017-08-23T19:52:05.849Z,6.10
2017-08-23T19:54:33.796Z,5.43
2017-08-23T19:57:01.335Z,5.67
2017-08-23T19:59:28.917Z,5.00
2017-08-23T20:01:56.533Z,5.00
2017-08-23T20:04:24.107Z,5.20
2017-08-23T20:06:51.974Z,5.07
2017-08-23T20:09:19.544Z,4.87
2017-08-23T20:11:47.089Z,5.57
2017-08-23T20:14:14.690Z,5.10
2017-08-23T20:16:42.247Z,5.50
2017-08-23T20:19:15.803Z,5.50
2017-08-23T20:21:43.366Z,6.17
2017-08-23T20:24:11.294Z,5.50
2017-08-23T20:26:44.119Z,5.50
2017-08-23T20:29:11.657Z,5.97
2017-08-23T20:31:39.609Z,7.00
2017-08-23T20:34:07.155Z,5.70
2017-08-23T20:36:34.740Z,5.63
2017-08-23T20:39:09.555Z,5.73
2017-08-23T20:41:37.113Z,6.33
2017-08-23T20:44:04.961Z,5.73
2017-08-23T20:46:32.500Z,6.00
2017-08-23T20:49:00.064Z,6.37
2017-08-23T20:51:27.659Z,6.70
2017-08-23T20:53:55.217Z,6.43
2017-08-23T20:56:23.088Z,6.63
2017-08-23T20:58:50.628Z,6.17
2017-08-23T21:01:18.161Z,6.60
2017-08-23T21:03:45.724Z,6.67
2017-08-23T21:06:13.265Z,6.60
2017-08-23T21:08:41.149Z,7.80
2017-08-23T21:11:08.716Z,8.40
2017-08-23T21:13:37.224Z,8.60
2017-08-23T21:16:04.860Z,8.83
2017-08-23T21:18:32.411Z,9.67
2017-08-23T21:21:00.291Z,9.10
2017-08-23T21:23:28.851Z,9.20
2017-08-23T21:25:56.395Z,9.10
2017-08-23T21:28:23.962Z,9.63
2017-08-23T21:30:55.789Z,9.50
2017-08-23T21:33:23.681Z,9.33
2017-08-23T21:35:51.220Z,7.97
2017-08-23T21:38:18.770Z,7.07
2017-08-23T21:40:46.331Z,8.00
2017-08-23T21:43:13.875Z,8.00
2017-08-23T21:45:41.711Z,7.80
2017-08-23T21:48:09.242Z,8.13
2017-08-23T21:50:36.780Z,8.47
2017-08-23T21:53:04.337Z,7.03
2017-08-23T21:55:32.818Z,7.13
2017-08-23T21:58:00.762Z,7.23
2017-08-23T22:00:28.319Z,7.33
2017-08-23T22:02:55.862Z,6.70
2017-08-23T22:05:23.423Z,6.50
2017-08-23T22:07:50.985Z,6.60
2017-08-23T22:10:18.827Z,7.00
2017-08-23T22:12:46.378Z,6.60
2017-08-23T22:15:18.713Z,7.40
2017-08-23T22:17:46.231Z,7.57
2017-08-23T22:20:13.811Z,7.30
2017-08-23T22:22:41.385Z,7.10
2017-08-23T22:25:23.797Z,6.50
2017-08-23T22:27:51.331Z,6.10
2017-08-23T22:30:18.905Z,7.43
2017-08-23T22:32:46.750Z,7.40
2017-08-23T22:35:14.297Z,7.33
2017-08-23T22:37:41.864Z,7.53
2017-08-23T22:40:10.315Z,6.70
2017-08-23T22:42:37.885Z,6.63
2017-08-23T22:45:05.761Z,6.50
2017-08-23T22:47:41.168Z,7.67
2017-08-23T22:50:09.121Z,7.33
2017-08-23T22:52:36.669Z,6.93
2017-08-23T22:55:06.114Z,6.70
2017-08-23T22:57:33.653Z,7.20
2017-08-23T23:00:01.186Z,7.27
2017-08-23T23:02:29.009Z,6.90
2017-08-23T23:04:56.536Z,6.47
2017-08-23T23:07:24.078Z,7.00
2017-08-23T23:09:51.634Z,6.60
2017-08-23T23:12:19.162Z,7.73
2017-08-23T23:14:46.972Z,7.33
2017-08-23T23:17:14.494Z,6.63
2017-08-23T23:19:42.023Z,7.10
2017-08-23T23:22:09.590Z,6.63
2017-08-23T23:24:37.134Z,7.00
2017-08-23T23:27:04.991Z,7.13
2017-08-23T23:29:32.532Z,5.50
2017-08-23T23:32:00.063Z,6.70
2017-08-23T23:34:27.639Z,7.33
2017-08-23T23:36:55.179Z,7.50
2017-08-23T23:39:23.023Z,6.57
2017-08-23T23:41:50.549Z,7.10
2017-08-23T23:44:18.084Z,6.47
2017-08-23T23:46:45.656Z,6.83
2017-08-23T23:49:13.180Z,7.20
2017-08-23T23:51:41.011Z,6.40
2017-08-23T23:54:08.514Z,7.07
2017-08-23T23:56:36.108Z,7.40
2017-08-23T23:59:03.662Z,8.50
